Time;durP1;ratioP1;P1;durP2;ratioP2;P2;SDS_P1;SDS_P2;PMS_P1;PMS_P2;Temp;Humidity;BMP_temperature;BMP_pressure;BME280_temperature;BME280_humidity;BME280_pressure;Samples;Min_cycle;Max_cycle;Signal;HPM_P1;HPM_P2
2022/09/07 00:01:36;;;;;;;2.00;1.50;;;;;;;;;;4991593;28;20038;-53
2022/09/07 00:04:02;;;;;;;3.70;1.55;;;;;;;;;;4996611;28;20069;-53
2022/09/07 00:06:28;;;;;;;2.42;1.55;;;;;;;;;;4999327;28;20045;-54
2022/09/07 00:08:54;;;;;;;5.45;1.60;;;;;;;;;;4993828;28;20032;-53
2022/09/07 00:11:19;;;;;;;5.07;1.63;;;;;;;;;;4998450;28;20088;-55
2022/09/07 00:13:47;;;;;;;3.63;1.50;;;;;;;;;;4995574;28;20060;-51
2022/09/07 00:16:27;;;;;;;5.82;1.50;;;;;;;;;;4988577;28;20053;-56
2022/09/07 00:18:55;;;;;;;4.03;1.58;;;;;;;;;;4994657;28;20067;-57
2022/09/07 00:21:20;;;;;;;2.83;1.40;;;;;;;;;;4998592;28;20073;-53
2022/09/07 00:23:47;;;;;;;4.22;1.35;;;;;;;;;;4992950;28;20113;-55
2022/09/07 00:26:16;;;;;;;2.15;1.33;;;;;;;;;;4995467;28;20045;-53
2022/09/07 00:28:42;;;;;;;2.72;2.13;;;;;;;;;;4997627;28;20054;-56
2022/09/07 00:31:13;;;;;;;1.67;1.45;;;;;;;;;;4994766;28;20290;-52
2022/09/07 00:33:39;;;;;;;2.65;1.58;;;;;;;;;;4996271;28;20104;-55
2022/09/07 00:36:05;;;;;;;1.77;1.30;;;;;;;;;;4992976;28;20034;-57
2022/09/07 00:38:30;;;;;;;5.10;1.65;;;;;;;;;;4992306;28;20478;-53
2022/09/07 00:40:56;;;;;;;4.05;1.98;;;;;;;;;;4997500;28;20153;-54
2022/09/07 00:43:52;;;;;;;3.80;2.22;;;;;;;;;;4996403;28;20555;-55
2022/09/07 00:46:22;;;;;;;2.58;2.13;;;;;;;;;;4992671;28;20100;-53
2022/09/07 00:48:53;;;;;;;5.35;2.05;;;;;;;;;;4995186;28;20042;-61
2022/09/07 00:51:32;;;;;;;3.20;2.20;;;;;;;;;;4991752;28;20050;-57
2022/09/07 00:54:06;;;;;;;4.22;1.70;;;;;;;;;;5000135;28;20470;-56
2022/09/07 00:56:35;;;;;;;6.65;2.58;;;;;;;;;;4996524;28;20510;-57
2022/09/07 00:59:01;;;;;;;7.68;2.50;;;;;;;;;;4992842;28;20057;-54
2022/09/07 01:01:27;;;;;;;4.05;2.10;;;;;;;;;;4993757;28;20502;-62
2022/09/07 01:03:55;;;;;;;4.32;2.22;;;;;;;;;;4994361;28;20137;-61
2022/09/07 01:06:35;;;;;;;4.47;2.47;;;;;;;;;;4998038;28;20053;-63
2022/09/07 01:09:10;;;;;;;3.08;1.90;;;;;;;;;;5004109;28;20043;-63
2022/09/07 01:11:37;;;;;;;3.83;1.90;;;;;;;;;;5005057;28;20030;-61
2022/09/07 01:14:06;;;;;;;6.20;2.00;;;;;;;;;;4998374;28;20398;-61
2022/09/07 01:16:46;;;;;;;3.97;1.73;;;;;;;;;;4996192;28;20786;-61
2022/09/07 01:19:30;;;;;;;2.92;1.65;;;;;;;;;;4992324;28;20046;-62
2022/09/07 01:22:11;;;;;;;2.55;1.60;;;;;;;;;;5003630;28;20046;-61
2022/09/07 01:24:51;;;;;;;2.30;1.80;;;;;;;;;;4994058;28;20373;-63
2022/09/07 01:27:22;;;;;;;4.85;2.00;;;;;;;;;;4999047;28;20130;-61
2022/09/07 01:30:11;;;;;;;2.70;1.73;;;;;;;;;;4998314;28;20216;-61
2022/09/07 01:32:55;;;;;;;8.07;2.40;;;;;;;;;;4994433;28;20082;-63
2022/09/07 01:35:38;;;;;;;3.17;1.98;;;;;;;;;;5005336;28;20056;-63
2022/09/07 01:38:10;;;;;;;3.13;2.33;;;;;;;;;;4996598;28;20427;-64
2022/09/07 01:40:43;;;;;;;5.32;2.08;;;;;;;;;;5002002;28;20043;-61
2022/09/07 01:43:17;;;;;;;2.58;2.00;;;;;;;;;;4995645;28;20136;-61
2022/09/07 01:45:45;;;;;;;4.00;2.05;;;;;;;;;;4997632;28;20058;-61
2022/09/07 01:48:15;;;;;;;6.13;2.00;;;;;;;;;;4994336;28;20030;-61
2022/09/07 01:50:52;;;;;;;6.03;2.10;;;;;;;;;;4994850;28;20060;-62
2022/09/07 01:53:36;;;;;;;3.45;2.10;;;;;;;;;;4995470;28;20052;-61
2022/09/07 01:56:10;;;;;;;2.63;1.90;;;;;;;;;;4993627;28;20045;-63
2022/09/07 01:58:38;;;;;;;5.38;2.40;;;;;;;;;;5001175;28;20038;-61
2022/09/07 02:01:31;;;;;;;4.65;2.40;;;;;;;;;;4997601;28;20415;-63
2022/09/07 02:04:04;;;;;;;2.72;1.80;;;;;;;;;;5003947;28;20113;-62
2022/09/07 02:06:30;;;;;;;3.15;2.05;;;;;;;;;;5001904;28;20038;-62
2022/09/07 02:09:02;;;;;;;7.72;2.70;;;;;;;;;;5003841;28;20121;-62
2022/09/07 02:11:39;;;;;;;4.90;2.17;;;;;;;;;;4999466;28;20037;-62
2022/09/07 02:14:28;;;;;;;7.53;2.35;;;;;;;;;;5003157;28;20054;-62
2022/09/07 02:17:08;;;;;;;7.78;2.42;;;;;;;;;;5000839;28;20046;-61
2022/09/07 02:19:39;;;;;;;6.35;2.70;;;;;;;;;;4998758;28;20050;-61
2022/09/07 02:22:12;;;;;;;5.38;2.95;;;;;;;;;;5000885;28;20488;-63
2022/09/07 02:24:45;;;;;;;5.68;2.75;;;;;;;;;;4999755;28;20046;-62
2022/09/07 02:27:16;;;;;;;4.68;2.90;;;;;;;;;;5000660;28;20026;-62
2022/09/07 02:29:44;;;;;;;8.02;3.42;;;;;;;;;;5005101;28;20167;-62
2022/09/07 02:32:10;;;;;;;5.50;3.22;;;;;;;;;;5001165;28;20397;-62
2022/09/07 02:34:35;;;;;;;8.70;3.63;;;;;;;;;;5001960;28;20050;-62
2022/09/07 02:37:05;;;;;;;6.45;3.78;;;;;;;;;;5004764;28;20145;-63
2022/09/07 02:39:30;;;;;;;5.88;3.85;;;;;;;;;;4995093;28;20109;-62
2022/09/07 02:41:56;;;;;;;7.72;4.00;;;;;;;;;;4999721;28;20033;-62
2022/09/07 02:44:26;;;;;;;7.70;3.40;;;;;;;;;;4994004;28;20045;-61
2022/09/07 02:47:04;;;;;;;4.60;3.72;;;;;;;;;;4995854;28;20633;-62
2022/09/07 02:49:34;;;;;;;3.67;3.30;;;;;;;;;;4993706;28;20069;-63
2022/09/07 02:52:12;;;;;;;7.05;3.42;;;;;;;;;;4992097;28;20053;-64
2022/09/07 02:54:56;;;;;;;5.18;3.22;;;;;;;;;;4997513;28;20073;-63
2022/09/07 02:57:59;;;;;;;7.55;3.88;;;;;;;;;;4995084;28;20084;-64
2022/09/07 03:00:25;;;;;;;5.45;3.60;;;;;;;;;;4996269;28;20045;-62
2022/09/07 03:03:05;;;;;;;5.65;3.40;;;;;;;;;;4997693;28;20053;-65
2022/09/07 03:06:05;;;;;;;7.07;3.95;;;;;;;;;;4993033;28;20042;-63
2022/09/07 03:08:36;;;;;;;8.43;4.00;;;;;;;;;;4973167;28;20054;-63
2022/09/07 03:11:06;;;;;;;9.85;4.32;;;;;;;;;;4997394;28;20561;-62
2022/09/07 03:13:31;;;;;;;6.63;3.65;;;;;;;;;;4998838;28;20078;-62
2022/09/07 03:15:57;;;;;;;8.52;4.57;;;;;;;;;;5003049;28;20064;-62
2022/09/07 03:18:24;;;;;;;14.93;5.07;;;;;;;;;;4998898;28;20124;-62
2022/09/07 03:20:50;;;;;;;4.93;3.85;;;;;;;;;;5005342;28;20033;-62
2022/09/07 03:23:15;;;;;;;8.00;4.18;;;;;;;;;;5006774;28;20050;-62
2022/09/07 03:25:41;;;;;;;7.57;4.20;;;;;;;;;;4999699;28;20058;-62
2022/09/07 03:28:06;;;;;;;6.00;3.83;;;;;;;;;;5006424;28;20054;-62
2022/09/07 03:30:32;;;;;;;9.27;4.18;;;;;;;;;;5000317;28;20100;-61
2022/09/07 03:32:57;;;;;;;7.40;3.97;;;;;;;;;;5000642;28;20034;-61
2022/09/07 03:35:23;;;;;;;11.80;4.43;;;;;;;;;;5006710;28;20033;-63
2022/09/07 03:37:48;;;;;;;6.13;4.40;;;;;;;;;;5007342;28;20046;-64
2022/09/07 03:40:15;;;;;;;8.07;4.05;;;;;;;;;;5002162;28;20038;-64
2022/09/07 03:42:40;;;;;;;7.68;4.32;;;;;;;;;;4994820;28;20123;-63
2022/09/07 03:45:08;;;;;;;8.30;4.90;;;;;;;;;;4995409;28;20113;-63
2022/09/07 03:47:34;;;;;;;6.65;4.63;;;;;;;;;;4997257;28;20030;-62
2022/09/07 03:49:59;;;;;;;8.02;4.82;;;;;;;;;;4997557;28;20788;-62
2022/09/07 03:52:25;;;;;;;10.23;4.85;;;;;;;;;;4996133;28;20060;-61
2022/09/07 03:54:50;;;;;;;7.32;4.30;;;;;;;;;;4998110;28;20069;-62
2022/09/07 03:57:18;;;;;;;6.63;4.40;;;;;;;;;;4996570;28;20124;-62
2022/09/07 03:59:44;;;;;;;7.18;4.93;;;;;;;;;;4998680;28;20040;-65
2022/09/07 04:02:09;;;;;;;7.03;4.57;;;;;;;;;;4993551;28;20066;-63
2022/09/07 04:04:35;;;;;;;13.32;4.30;;;;;;;;;;4995552;28;20054;-62
2022/09/07 04:07:00;;;;;;;7.05;4.70;;;;;;;;;;4999447;28;20685;-61
2022/09/07 04:09:26;;;;;;;8.02;4.95;;;;;;;;;;4999820;28;20053;-62
2022/09/07 04:11:51;;;;;;;7.13;4.97;;;;;;;;;;5001998;28;20477;-63
2022/09/07 04:14:17;;;;;;;7.78;4.40;;;;;;;;;;4997655;28;20128;-62
2022/09/07 04:16:44;;;;;;;8.60;4.57;;;;;;;;;;5004248;28;20112;-61
2022/09/07 04:19:09;;;;;;;10.55;5.20;;;;;;;;;;4999814;28;20054;-61
2022/09/07 04:21:35;;;;;;;11.90;4.80;;;;;;;;;;5005948;28;20054;-61
2022/09/07 04:24:00;;;;;;;7.85;5.00;;;;;;;;;;4998218;28;20129;-63
2022/09/07 04:26:31;;;;;;;6.05;4.93;;;;;;;;;;4999458;28;20092;-61
2022/09/07 04:28:58;;;;;;;8.57;4.90;;;;;;;;;;4999659;28;20753;-61
2022/09/07 04:31:23;;;;;;;8.27;5.43;;;;;;;;;;5000953;28;20069;-64
2022/09/07 04:33:50;;;;;;;6.07;4.63;;;;;;;;;;5000966;28;20111;-63
2022/09/07 04:36:17;;;;;;;7.93;5.00;;;;;;;;;;5002129;28;20404;-63
2022/09/07 04:38:44;;;;;;;7.95;5.07;;;;;;;;;;5005479;28;20551;-64
2022/09/07 04:41:15;;;;;;;6.32;4.95;;;;;;;;;;5004171;28;20044;-62
2022/09/07 04:43:42;;;;;;;7.82;4.75;;;;;;;;;;5000268;28;20121;-63
2022/09/07 04:46:16;;;;;;;7.85;4.97;;;;;;;;;;5002412;28;20050;-61
2022/09/07 04:48:41;;;;;;;9.02;5.05;;;;;;;;;;5001439;28;20038;-63
2022/09/07 04:51:09;;;;;;;7.82;5.03;;;;;;;;;;5000274;28;20499;-63
2022/09/07 04:53:35;;;;;;;11.35;7.70;;;;;;;;;;5001708;28;20064;-63
2022/09/07 04:56:01;;;;;;;10.60;5.28;;;;;;;;;;5003428;28;20050;-62
2022/09/07 04:58:27;;;;;;;14.50;5.75;;;;;;;;;;5005223;28;20042;-62
2022/09/07 05:00:53;;;;;;;10.23;5.13;;;;;;;;;;5006124;28;20049;-62
2022/09/07 05:03:18;;;;;;;11.75;4.97;;;;;;;;;;5003775;28;20057;-62
2022/09/07 05:05:43;;;;;;;8.00;5.53;;;;;;;;;;4996659;28;20041;-61
2022/09/07 05:08:10;;;;;;;9.80;5.45;;;;;;;;;;4993690;28;20053;-66
2022/09/07 05:10:35;;;;;;;6.38;5.68;;;;;;;;;;4993412;28;20158;-67
2022/09/07 05:13:01;;;;;;;7.28;5.20;;;;;;;;;;4995732;28;20134;-61
2022/09/07 05:15:30;;;;;;;8.98;5.82;;;;;;;;;;4996386;28;20083;-61
2022/09/07 05:17:57;;;;;;;9.32;6.07;;;;;;;;;;4995208;28;20448;-61
2022/09/07 05:20:22;;;;;;;7.60;5.97;;;;;;;;;;4999218;28;20035;-61
2022/09/07 05:22:52;;;;;;;10.55;5.90;;;;;;;;;;5002170;28;20034;-61
2022/09/07 05:25:18;;;;;;;7.38;6.25;;;;;;;;;;4992724;28;20056;-62
2022/09/07 05:27:43;;;;;;;7.97;6.40;;;;;;;;;;4996959;28;20045;-61
2022/09/07 05:30:09;;;;;;;11.73;6.07;;;;;;;;;;4996170;28;20037;-62
2022/09/07 05:32:34;;;;;;;8.30;5.50;;;;;;;;;;4997049;28;20570;-62
2022/09/07 05:35:00;;;;;;;9.48;5.97;;;;;;;;;;4995723;28;20316;-63
2022/09/07 05:37:25;;;;;;;8.45;5.90;;;;;;;;;;4995394;28;20404;-62
2022/09/07 05:39:55;;;;;;;8.65;5.70;;;;;;;;;;5004213;28;20491;-61
2022/09/07 05:42:21;;;;;;;6.47;5.60;;;;;;;;;;4994850;28;20058;-61
2022/09/07 05:44:46;;;;;;;7.90;5.40;;;;;;;;;;5005026;28;20091;-63
2022/09/07 05:47:12;;;;;;;8.85;5.68;;;;;;;;;;5001794;28;20205;-61
2022/09/07 05:49:37;;;;;;;9.77;6.20;;;;;;;;;;4997926;28;20061;-63
2022/09/07 05:52:03;;;;;;;7.45;5.40;;;;;;;;;;5003719;28;20559;-62
2022/09/07 05:54:28;;;;;;;6.22;5.55;;;;;;;;;;5007504;28;20455;-63
2022/09/07 05:56:53;;;;;;;7.10;5.22;;;;;;;;;;5007695;28;20038;-60
2022/09/07 05:59:19;;;;;;;13.15;6.15;;;;;;;;;;5004493;28;20056;-60
2022/09/07 06:01:44;;;;;;;9.13;5.68;;;;;;;;;;5001800;28;20717;-61
2022/09/07 06:04:10;;;;;;;8.75;5.72;;;;;;;;;;5003440;28;20042;-61
2022/09/07 06:06:37;;;;;;;6.75;5.45;;;;;;;;;;5000202;28;20052;-61
2022/09/07 06:09:03;;;;;;;7.72;6.15;;;;;;;;;;4993683;28;20432;-61
2022/09/07 06:11:28;;;;;;;10.68;5.65;;;;;;;;;;4993170;28;20542;-62
2022/09/07 06:13:54;;;;;;;11.15;5.68;;;;;;;;;;5003744;28;20522;-61
2022/09/07 06:16:20;;;;;;;11.55;5.82;;;;;;;;;;4999480;28;20045;-60
2022/09/07 06:18:47;;;;;;;8.02;5.68;;;;;;;;;;5001613;28;20042;-60
2022/09/07 06:21:18;;;;;;;6.75;5.50;;;;;;;;;;4998848;28;20571;-60
2022/09/07 06:23:45;;;;;;;7.47;5.50;;;;;;;;;;4998625;28;20042;-59
2022/09/07 06:26:10;;;;;;;9.75;5.20;;;;;;;;;;4995171;28;20047;-60
2022/09/07 06:28:38;;;;;;;9.90;5.25;;;;;;;;;;4990221;28;20064;-62
2022/09/07 06:31:10;;;;;;;7.97;5.10;;;;;;;;;;4996025;28;20103;-61
2022/09/07 06:33:36;;;;;;;10.82;6.30;;;;;;;;;;4993503;28;20053;-61
2022/09/07 06:36:04;;;;;;;9.55;5.97;;;;;;;;;;4993297;28;20038;-61
2022/09/07 06:38:32;;;;;;;15.40;6.20;;;;;;;;;;4991896;28;20093;-60
2022/09/07 06:41:01;;;;;;;11.95;5.72;;;;;;;;;;5002368;28;20052;-62
2022/09/07 06:43:27;;;;;;;13.07;5.53;;;;;;;;;;5000165;28;20057;-61
2022/09/07 06:45:53;;;;;;;10.88;5.72;;;;;;;;;;5001963;28;20053;-62
2022/09/07 06:48:19;;;;;;;11.60;6.15;;;;;;;;;;4996426;28;20416;-62
2022/09/07 06:50:54;;;;;;;12.07;6.13;;;;;;;;;;4999161;28;20033;-61
2022/09/07 06:53:20;;;;;;;9.07;6.28;;;;;;;;;;4997636;28;20061;-61
2022/09/07 06:55:45;;;;;;;10.07;6.22;;;;;;;;;;4991240;28;20651;-65
2022/09/07 06:58:10;;;;;;;9.85;5.90;;;;;;;;;;5004340;28;20091;-63
2022/09/07 07:00:36;;;;;;;11.45;6.38;;;;;;;;;;5003296;28;20046;-61
2022/09/07 07:03:01;;;;;;;12.88;7.75;;;;;;;;;;5004433;28;20029;-61
2022/09/07 07:05:26;;;;;;;7.85;4.80;;;;;;;;;;4995894;28;20040;-60
2022/09/07 07:07:52;;;;;;;12.90;6.68;;;;;;;;;;4994962;28;20169;-61
2022/09/07 07:10:17;;;;;;;8.38;4.90;;;;;;;;;;5002673;28;20048;-60
2022/09/07 07:12:43;;;;;;;8.07;5.13;;;;;;;;;;5002268;28;20042;-61
2022/09/07 07:15:08;;;;;;;9.65;4.97;;;;;;;;;;4999313;28;20052;-61
2022/09/07 07:17:34;;;;;;;7.43;4.82;;;;;;;;;;5003342;28;20824;-61
2022/09/07 07:20:00;;;;;;;10.93;4.80;;;;;;;;;;4992542;28;20058;-59
2022/09/07 07:22:25;;;;;;;7.00;4.20;;;;;;;;;;4997964;28;20116;-60
2022/09/07 07:24:50;;;;;;;4.82;3.85;;;;;;;;;;4999183;28;20119;-61
2022/09/07 07:27:16;;;;;;;5.78;3.05;;;;;;;;;;5003802;28;20049;-61
2022/09/07 07:29:42;;;;;;;5.95;3.83;;;;;;;;;;4998313;28;20109;-61
2022/09/07 07:32:07;;;;;;;7.78;4.00;;;;;;;;;;5004718;28;20085;-62
2022/09/07 07:34:32;;;;;;;7.50;4.07;;;;;;;;;;4997955;28;20050;-61
2022/09/07 07:36:58;;;;;;;8.55;4.03;;;;;;;;;;4992055;28;20104;-60
2022/09/07 07:39:23;;;;;;;10.27;3.97;;;;;;;;;;5001651;28;20416;-60
2022/09/07 07:41:48;;;;;;;10.25;4.05;;;;;;;;;;5002640;28;20042;-60
2022/09/07 07:44:14;;;;;;;6.45;3.60;;;;;;;;;;5000458;28;20181;-60
2022/09/07 07:46:39;;;;;;;10.05;4.10;;;;;;;;;;4992869;28;20049;-60
2022/09/07 07:49:05;;;;;;;9.38;3.75;;;;;;;;;;4993538;28;20585;-61
2022/09/07 07:51:30;;;;;;;5.63;3.30;;;;;;;;;;4993465;28;20050;-61
2022/09/07 07:53:56;;;;;;;5.80;2.90;;;;;;;;;;4994262;28;22113;-62
2022/09/07 07:56:21;;;;;;;11.10;3.30;;;;;;;;;;4994212;28;20035;-64
2022/09/07 07:58:47;;;;;;;4.78;2.80;;;;;;;;;;4994255;28;20034;-63
2022/09/07 08:01:15;;;;;;;11.27;3.20;;;;;;;;;;4992255;28;20057;-61
2022/09/07 08:03:43;;;;;;;8.27;3.03;;;;;;;;;;4990218;28;20101;-60
2022/09/07 08:06:14;;;;;;;8.00;3.10;;;;;;;;;;4993060;28;20045;-61
2022/09/07 08:08:40;;;;;;;10.38;3.20;;;;;;;;;;4992092;28;20026;-61
2022/09/07 08:11:12;;;;;;;5.13;2.97;;;;;;;;;;4998573;28;20050;-61
2022/09/07 08:13:40;;;;;;;4.17;2.97;;;;;;;;;;4996174;28;20060;-60
2022/09/07 08:16:06;;;;;;;7.38;3.00;;;;;;;;;;4997170;28;20041;-61
2022/09/07 08:18:32;;;;;;;7.85;3.50;;;;;;;;;;4999346;28;20518;-60
2022/09/07 08:21:00;;;;;;;5.95;2.95;;;;;;;;;;5007111;28;20524;-60
2022/09/07 08:23:26;;;;;;;6.63;3.40;;;;;;;;;;4998434;28;20079;-60
2022/09/07 08:25:53;;;;;;;5.22;3.35;;;;;;;;;;5005974;28;20061;-60
2022/09/07 08:28:22;;;;;;;5.07;3.28;;;;;;;;;;5002158;28;20046;-61
2022/09/07 08:30:47;;;;;;;4.43;2.90;;;;;;;;;;4996235;28;20503;-60
2022/09/07 08:33:13;;;;;;;6.45;3.28;;;;;;;;;;4999867;28;20038;-62
2022/09/07 08:35:38;;;;;;;5.68;2.92;;;;;;;;;;5003050;28;20100;-60
2022/09/07 08:38:04;;;;;;;5.68;3.03;;;;;;;;;;4995170;28;20046;-59
2022/09/07 08:40:31;;;;;;;6.47;3.45;;;;;;;;;;4997372;28;20553;-59
2022/09/07 08:43:16;;;;;;;5.93;3.45;;;;;;;;;;4997815;28;20057;-60
2022/09/07 08:45:45;;;;;;;8.90;3.15;;;;;;;;;;4993138;28;20141;-60
2022/09/07 08:48:15;;;;;;;6.28;3.20;;;;;;;;;;4989928;28;20045;-60
2022/09/07 08:51:01;;;;;;;6.65;3.50;;;;;;;;;;4995349;28;20034;-62
2022/09/07 08:53:28;;;;;;;6.47;3.38;;;;;;;;;;4991643;28;20054;-61
2022/09/07 08:56:03;;;;;;;7.82;3.10;;;;;;;;;;5002055;28;20088;-60
2022/09/07 08:58:45;;;;;;;6.63;3.28;;;;;;;;;;4996172;28;20050;-61
2022/09/07 09:01:35;;;;;;;4.85;3.03;;;;;;;;;;4994107;28;20125;-60
2022/09/07 09:04:01;;;;;;;6.97;2.78;;;;;;;;;;4990805;28;20060;-62
2022/09/07 09:06:37;;;;;;;6.25;2.92;;;;;;;;;;4993421;28;20080;-60
2022/09/07 09:09:20;;;;;;;8.65;2.78;;;;;;;;;;4990446;28;20029;-61
2022/09/07 09:12:07;;;;;;;5.55;2.95;;;;;;;;;;4998135;28;20034;-61
2022/09/07 09:14:47;;;;;;;5.28;3.00;;;;;;;;;;4993773;28;20100;-61
2022/09/07 09:17:40;;;;;;;3.83;2.40;;;;;;;;;;4993015;28;20054;-60
2022/09/07 09:20:28;;;;;;;5.03;2.53;;;;;;;;;;4995368;28;20053;-61
2022/09/07 09:23:01;;;;;;;5.68;2.35;;;;;;;;;;4994814;28;20045;-60
2022/09/07 09:25:32;;;;;;;3.50;2.47;;;;;;;;;;5000212;28;20042;-60
2022/09/07 09:27:59;;;;;;;3.63;2.20;;;;;;;;;;4995413;28;20046;-61
2022/09/07 09:30:26;;;;;;;5.70;2.28;;;;;;;;;;5002953;28;20057;-61
2022/09/07 09:33:20;;;;;;;6.47;2.08;;;;;;;;;;4998323;28;20373;-60
2022/09/07 09:35:50;;;;;;;5.40;2.08;;;;;;;;;;4992500;28;20046;-60
2022/09/07 09:38:28;;;;;;;4.55;2.45;;;;;;;;;;5001397;28;20058;-61
2022/09/07 09:40:55;;;;;;;6.78;2.50;;;;;;;;;;5001097;28;20088;-61
2022/09/07 09:43:24;;;;;;;5.47;1.83;;;;;;;;;;5002685;28;20577;-62
2022/09/07 09:45:52;;;;;;;4.45;1.92;;;;;;;;;;5005174;28;20050;-61
2022/09/07 09:48:40;;;;;;;4.53;2.13;;;;;;;;;;4993423;28;20057;-62
2022/09/07 09:51:07;;;;;;;4.38;2.00;;;;;;;;;;5004805;28;20033;-60
2022/09/07 09:53:57;;;;;;;6.53;2.50;;;;;;;;;;5004571;28;20484;-60
2022/09/07 09:56:39;;;;;;;5.07;1.80;;;;;;;;;;5001745;28;20038;-61
2022/09/07 09:59:22;;;;;;;5.38;1.65;;;;;;;;;;4999281;28;20065;-62
2022/09/07 10:01:49;;;;;;;4.50;2.17;;;;;;;;;;4999765;28;20071;-61
2022/09/07 10:04:29;;;;;;;4.32;2.10;;;;;;;;;;4999612;28;20049;-60
2022/09/07 10:07:21;;;;;;;4.97;2.10;;;;;;;;;;5002405;28;20067;-61
2022/09/07 10:09:51;;;;;;;4.23;1.80;;;;;;;;;;4995344;28;20049;-61
2022/09/07 10:12:25;;;;;;;4.45;1.80;;;;;;;;;;4999120;28;20042;-60
2022/09/07 10:14:50;;;;;;;5.60;1.85;;;;;;;;;;4997562;28;20029;-61
2022/09/07 10:17:27;;;;;;;3.40;1.90;;;;;;;;;;4999621;28;20507;-61
2022/09/07 10:19:58;;;;;;;2.63;1.63;;;;;;;;;;4997042;28;20054;-61
2022/09/07 10:22:31;;;;;;;3.85;2.05;;;;;;;;;;4992336;28;20138;-61
2022/09/07 10:24:59;;;;;;;6.93;2.28;;;;;;;;;;4997853;28;20053;-61
2022/09/07 10:27:32;;;;;;;5.15;1.80;;;;;;;;;;4998586;28;20066;-61
2022/09/07 10:29:58;;;;;;;5.75;2.33;;;;;;;;;;4995610;28;20084;-61
2022/09/07 10:32:38;;;;;;;4.90;1.90;;;;;;;;;;4999844;28;20029;-61
2022/09/07 10:35:04;;;;;;;7.65;2.33;;;;;;;;;;4996716;28;20084;-62
2022/09/07 10:37:52;;;;;;;2.90;1.90;;;;;;;;;;4994351;28;20503;-62
2022/09/07 10:40:27;;;;;;;7.45;2.10;;;;;;;;;;5002216;28;20042;-62
2022/09/07 10:43:34;;;;;;;4.43;1.67;;;;;;;;;;4998374;28;20095;-62
2022/09/07 10:46:11;;;;;;;5.53;1.98;;;;;;;;;;4939289;28;20043;-62
2022/09/07 10:48:59;;;;;;;3.90;1.85;;;;;;;;;;4989682;28;20046;-62
2022/09/07 10:51:51;;;;;;;4.57;1.80;;;;;;;;;;4995471;28;20121;-61
2022/09/07 10:54:25;;;;;;;5.10;2.10;;;;;;;;;;4995620;28;20058;-61
2022/09/07 10:57:23;;;;;;;5.53;1.77;;;;;;;;;;5004192;28;20116;-61
2022/09/07 11:00:09;;;;;;;6.65;1.90;;;;;;;;;;5000912;28;20080;-62
2022/09/07 11:02:59;;;;;;;4.55;1.83;;;;;;;;;;5002074;28;20057;-61
2022/09/07 11:05:49;;;;;;;7.85;2.20;;;;;;;;;;4997173;28;20050;-62
2022/09/07 11:08:23;;;;;;;2.47;1.60;;;;;;;;;;4997179;28;20050;-62
2022/09/07 11:11:08;;;;;;;5.53;1.70;;;;;;;;;;5003540;28;20044;-61
2022/09/07 11:13:39;;;;;;;5.25;2.05;;;;;;;;;;5004552;28;20045;-62
2022/09/07 11:16:10;;;;;;;6.00;1.73;;;;;;;;;;4998874;28;20133;-61
2022/09/07 11:18:46;;;;;;;7.70;1.92;;;;;;;;;;4988467;28;20090;-62
2022/09/07 11:21:15;;;;;;;5.13;1.77;;;;;;;;;;4986123;28;20373;-62
2022/09/07 11:23:47;;;;;;;7.00;1.73;;;;;;;;;;4989883;28;20077;-62
2022/09/07 11:26:18;;;;;;;;;;;;;;;;;;4990726;28;21243;-61
2022/09/07 11:28:59;;;;;;;4.88;1.60;;;;;;;;;;4991051;28;19917;-61
2022/09/07 11:31:43;;;;;;;3.38;1.38;;;;;;;;;;4992576;28;20043;-62
2022/09/07 11:34:27;;;;;;;4.63;1.80;;;;;;;;;;4992110;28;24208;-62
2022/09/07 11:37:25;;;;;;;3.70;1.85;;;;;;;;;;4992976;28;20056;-61
2022/09/07 11:39:59;;;;;;;4.03;1.70;;;;;;;;;;4993545;28;20058;-61
2022/09/07 11:42:24;;;;;;;4.65;1.98;;;;;;;;;;4999764;28;20404;-61
2022/09/07 11:44:56;;;;;;;6.57;1.70;;;;;;;;;;4991166;28;20049;-61
2022/09/07 11:47:33;;;;;;;3.58;1.42;;;;;;;;;;4992274;28;20078;-62
2022/09/07 11:49:58;;;;;;;5.20;1.70;;;;;;;;;;4991276;28;20043;-63
2022/09/07 11:52:35;;;;;;;3.63;1.60;;;;;;;;;;4995790;28;20054;-61
2022/09/07 11:55:09;;;;;;;4.03;1.50;;;;;;;;;;4990999;28;20270;-61
2022/09/07 11:58:08;;;;;;;3.78;1.90;;;;;;;;;;4993644;28;20132;-62
2022/09/07 12:00:42;;;;;;;5.35;1.70;;;;;;;;;;5005245;28;20050;-61
2022/09/07 12:03:17;;;;;;;3.65;1.58;;;;;;;;;;4997524;28;20441;-63
2022/09/07 12:05:52;;;;;;;3.83;1.90;;;;;;;;;;4990095;28;20514;-62
2022/09/07 12:08:41;;;;;;;5.65;2.30;;;;;;;;;;4987092;28;20077;-62
2022/09/07 12:11:10;;;;;;;2.60;1.88;;;;;;;;;;4991841;28;20139;-62
2022/09/07 12:13:58;;;;;;;7.25;1.90;;;;;;;;;;4989939;28;20495;-62
2022/09/07 12:16:27;;;;;;;2.80;2.00;;;;;;;;;;4995071;28;20504;-61
2022/09/07 12:19:14;;;;;;;7.60;2.08;;;;;;;;;;4990098;28;20074;-63
2022/09/07 12:21:52;;;;;;;3.65;1.77;;;;;;;;;;4984280;28;20053;-61
2022/09/07 12:24:32;;;;;;;7.03;1.35;;;;;;;;;;4990177;28;20552;-62
2022/09/07 12:27:10;;;;;;;6.20;1.80;;;;;;;;;;4998407;28;20052;-64
2022/09/07 12:29:36;;;;;;;3.60;1.30;;;;;;;;;;4988694;28;20087;-62
2022/09/07 12:32:03;;;;;;;2.83;1.10;;;;;;;;;;4988691;28;20441;-63
2022/09/07 12:34:28;;;;;;;1.55;1.05;;;;;;;;;;4984099;28;20477;-62
2022/09/07 12:36:54;;;;;;;1.80;0.90;;;;;;;;;;4986279;28;20054;-65
2022/09/07 12:39:24;;;;;;;1.90;0.90;;;;;;;;;;4991978;28;20056;-62
2022/09/07 12:41:52;;;;;;;2.40;1.10;;;;;;;;;;4985601;28;20113;-62
2022/09/07 12:44:23;;;;;;;3.33;1.10;;;;;;;;;;4988187;28;20119;-62
2022/09/07 12:46:53;;;;;;;3.15;1.15;;;;;;;;;;4986944;28;20061;-66
2022/09/07 12:49:52;;;;;;;0.80;0.80;;;;;;;;;;4990655;28;20590;-64
2022/09/07 12:52:20;;;;;;;2.05;0.85;;;;;;;;;;4988873;28;20093;-62
2022/09/07 12:55:03;;;;;;;3.95;1.10;;;;;;;;;;4987813;28;20131;-60
2022/09/07 12:57:51;;;;;;;2.80;1.13;;;;;;;;;;4990381;28;20050;-61
2022/09/07 13:00:25;;;;;;;3.03;1.33;;;;;;;;;;4994896;28;20484;-62
2022/09/07 13:03:09;;;;;;;3.22;1.20;;;;;;;;;;4991524;28;20041;-63
2022/09/07 13:05:55;;;;;;;4.03;1.50;;;;;;;;;;4993936;28;20164;-63
2022/09/07 13:08:56;;;;;;;3.22;1.73;;;;;;;;;;4989837;28;20077;-63
2022/09/07 13:11:42;;;;;;;4.90;1.48;;;;;;;;;;4981698;28;20050;-62
2022/09/07 13:14:14;;;;;;;3.28;1.75;;;;;;;;;;4991388;28;20289;-63
2022/09/07 13:16:42;;;;;;;4.70;1.50;;;;;;;;;;4983723;28;20050;-64
2022/09/07 13:19:13;;;;;;;2.85;1.50;;;;;;;;;;4987105;28;20042;-63
2022/09/07 13:21:47;;;;;;;4.55;1.77;;;;;;;;;;4990925;28;20051;-64
2022/09/07 13:24:15;;;;;;;3.42;1.30;;;;;;;;;;4986961;28;20048;-62
2022/09/07 13:26:57;;;;;;;2.60;1.20;;;;;;;;;;4991154;28;20037;-65
2022/09/07 13:29:37;;;;;;;3.85;1.50;;;;;;;;;;4985077;28;20144;-63
2022/09/07 13:32:31;;;;;;;3.78;1.45;;;;;;;;;;4989365;28;20493;-62
2022/09/07 13:34:59;;;;;;;3.75;1.67;;;;;;;;;;4986876;28;20049;-63
2022/09/07 13:37:26;;;;;;;5.80;1.88;;;;;;;;;;4990326;28;20053;-63
2022/09/07 13:39:54;;;;;;;2.65;1.45;;;;;;;;;;4994949;28;20049;-62
2022/09/07 13:42:27;;;;;;;4.32;1.48;;;;;;;;;;4997457;28;20045;-62
2022/09/07 13:44:58;;;;;;;2.53;1.23;;;;;;;;;;4994619;28;20042;-63
2022/09/07 13:47:42;;;;;;;4.45;1.40;;;;;;;;;;4991040;28;20061;-63
2022/09/07 13:50:46;;;;;;;2.40;1.45;;;;;;;;;;4991985;28;20462;-62
2022/09/07 13:53:32;;;;;;;6.28;1.40;;;;;;;;;;4957489;28;20162;-64
2022/09/07 13:56:11;;;;;;;3.90;1.50;;;;;;;;;;4990400;28;20417;-62
2022/09/07 13:58:42;;;;;;;3.00;1.42;;;;;;;;;;4995901;28;20077;-63
2022/09/07 14:01:11;;;;;;;1.55;1.20;;;;;;;;;;4998983;28;20053;-64
2022/09/07 14:04:01;;;;;;;2.83;1.17;;;;;;;;;;4988066;28;20069;-63
2022/09/07 14:06:30;;;;;;;2.42;1.38;;;;;;;;;;4994757;28;20045;-63
2022/09/07 14:09:07;;;;;;;1.40;1.20;;;;;;;;;;4994081;28;20045;-61
2022/09/07 14:11:42;;;;;;;4.00;1.40;;;;;;;;;;4990842;28;20026;-61
2022/09/07 14:14:10;;;;;;;2.90;1.55;;;;;;;;;;4988612;28;20112;-62
2022/09/07 14:16:36;;;;;;;3.35;1.48;;;;;;;;;;4988982;28;20124;-63
2022/09/07 14:19:09;;;;;;;3.03;1.30;;;;;;;;;;4990614;28;20085;-63
2022/09/07 14:21:34;;;;;;;5.05;1.48;;;;;;;;;;4991868;28;20050;-62
2022/09/07 14:24:02;;;;;;;1.88;1.63;;;;;;;;;;4990898;28;20343;-61
2022/09/07 14:26:28;;;;;;;6.75;1.30;;;;;;;;;;4999429;28;20033;-61
2022/09/07 14:28:55;;;;;;;3.03;1.27;;;;;;;;;;4995644;28;20061;-60
2022/09/07 14:31:23;;;;;;;4.53;1.60;;;;;;;;;;4996008;28;20172;-63
2022/09/07 14:33:52;;;;;;;5.10;1.42;;;;;;;;;;4992171;28;20042;-63
2022/09/07 14:36:20;;;;;;;3.72;1.50;;;;;;;;;;5006481;28;20088;-61
2022/09/07 14:38:48;;;;;;;3.90;1.40;;;;;;;;;;4993771;28;20042;-63
2022/09/07 14:41:16;;;;;;;2.40;1.67;;;;;;;;;;4995716;28;20508;-62
2022/09/07 14:43:52;;;;;;;1.40;1.10;;;;;;;;;;4994757;28;20483;-63
2022/09/07 14:46:25;;;;;;;3.22;1.50;;;;;;;;;;4987431;28;20081;-62
2022/09/07 14:48:53;;;;;;;2.40;1.98;;;;;;;;;;4989478;28;20088;-63
2022/09/07 14:51:24;;;;;;;3.85;1.30;;;;;;;;;;4993728;28;20045;-65
2022/09/07 14:53:51;;;;;;;2.30;1.30;;;;;;;;;;4999710;28;20323;-63
2022/09/07 14:56:20;;;;;;;4.13;1.50;;;;;;;;;;4992049;28;20054;-64
2022/09/07 14:58:47;;;;;;;4.18;1.40;;;;;;;;;;4984335;28;20077;-64
2022/09/07 15:01:12;;;;;;;2.90;1.48;;;;;;;;;;4982761;28;20133;-64
2022/09/07 15:03:37;;;;;;;1.80;1.40;;;;;;;;;;4993610;28;20055;-65
2022/09/07 15:06:04;;;;;;;2.50;1.30;;;;;;;;;;4988556;28;20285;-64
2022/09/07 15:08:48;;;;;;;4.57;1.40;;;;;;;;;;4993934;28;20120;-63
2022/09/07 15:11:21;;;;;;;3.05;1.40;;;;;;;;;;4991101;28;20055;-64